createdAt,value
2023-09-20T00:00:33.524Z,11.70
2023-09-20T00:02:05.738Z,11.70
2023-09-20T00:03:39.441Z,11.70
2023-09-20T00:05:16.386Z,11.60
2023-09-20T00:06:52.697Z,11.60
2023-09-20T00:08:26.312Z,11.70
2023-09-20T00:09:59.635Z,11.70
2023-09-20T00:11:32.877Z,11.70
2023-09-20T00:13:05.167Z,11.80
2023-09-20T00:14:38.653Z,11.90
2023-09-20T00:16:11.276Z,11.80
2023-09-20T00:17:45.067Z,11.90
2023-09-20T00:19:17.697Z,11.90
2023-09-20T00:20:50.946Z,11.90
2023-09-20T00:22:24.481Z,11.90
2023-09-20T00:23:57.690Z,12.00
2023-09-20T00:25:29.913Z,12.00
2023-09-20T00:27:03.839Z,12.00
2023-09-20T00:28:37.110Z,12.00
2023-09-20T00:30:11.723Z,11.80
2023-09-20T00:31:45.243Z,11.80
2023-09-20T00:33:18.606Z,11.80
2023-09-20T00:34:52.103Z,11.70
2023-09-20T00:36:25.363Z,11.60
2023-09-20T00:37:58.978Z,11.70
2023-09-20T00:39:32.437Z,11.60
2023-09-20T00:41:08.466Z,11.60
2023-09-20T00:42:41.328Z,11.60
2023-09-20T00:44:14.524Z,11.60
2023-09-20T00:45:47.771Z,11.70
2023-09-20T00:47:21.976Z,11.80
2023-09-20T00:48:55.647Z,12.00
2023-09-20T00:50:29.833Z,11.80
2023-09-20T00:52:04.654Z,11.80
2023-09-20T00:53:39.656Z,11.70
2023-09-20T00:55:16.607Z,11.60
2023-09-20T00:56:49.823Z,11.60
2023-09-20T00:58:24.525Z,11.60
2023-09-20T00:59:58.196Z,11.60
2023-09-20T01:01:30.415Z,11.60
2023-09-20T01:03:05.016Z,11.50
2023-09-20T01:04:40.597Z,11.50
2023-09-20T01:06:16.199Z,11.60
2023-09-20T01:07:50.344Z,11.50
2023-09-20T01:09:25.957Z,11.50
2023-09-20T01:10:58.512Z,11.50
2023-09-20T01:12:31.954Z,11.50
2023-09-20T01:14:05.908Z,11.50
2023-09-20T01:15:40.006Z,11.60
2023-09-20T01:17:15.650Z,11.50
2023-09-20T01:18:49.317Z,11.60
2023-09-20T01:20:22.300Z,11.50
2023-09-20T01:21:57.143Z,11.50
2023-09-20T01:23:29.460Z,11.50
2023-09-20T01:25:03.740Z,11.60
2023-09-20T01:26:40.323Z,11.60
2023-09-20T01:28:14.248Z,11.60
2023-09-20T01:29:48.350Z,11.60
2023-09-20T01:31:21.650Z,11.70
2023-09-20T01:32:56.936Z,11.60
2023-09-20T01:34:30.105Z,11.60
2023-09-20T01:36:06.090Z,11.50
2023-09-20T01:37:40.988Z,11.60
2023-09-20T01:39:14.520Z,11.60
2023-09-20T01:40:48.010Z,11.60
2023-09-20T01:42:22.782Z,11.60
2023-09-20T01:43:57.192Z,11.70
2023-09-20T01:45:30.441Z,11.60
2023-09-20T01:47:04.799Z,11.70
2023-09-20T01:48:38.865Z,11.60
2023-09-20T01:50:12.266Z,11.50
2023-09-20T01:51:46.191Z,11.50
2023-09-20T01:53:20.057Z,11.50
2023-09-20T01:54:56.390Z,11.50
2023-09-20T01:56:30.055Z,11.40
2023-09-20T01:58:06.910Z,11.40
2023-09-20T01:59:39.159Z,11.30
2023-09-20T02:01:12.470Z,11.30
2023-09-20T02:02:45.716Z,11.30
2023-09-20T02:04:19.119Z,11.30
2023-09-20T02:05:51.592Z,11.30
2023-09-20T02:07:25.040Z,11.30
2023-09-20T02:08:58.606Z,11.30
2023-09-20T02:10:32.751Z,11.30
2023-09-20T02:12:05.578Z,11.20
2023-09-20T02:13:39.190Z,11.20
2023-09-20T02:15:12.467Z,11.20
2023-09-20T02:16:46.669Z,11.20
2023-09-20T02:18:19.175Z,11.20
2023-09-20T02:19:52.466Z,11.20
2023-09-20T02:21:25.696Z,11.30
2023-09-20T02:22:58.385Z,11.40
2023-09-20T02:24:33.750Z,11.50
2023-09-20T02:26:06.050Z,11.40
2023-09-20T02:27:40.557Z,11.50
2023-09-20T02:29:13.949Z,11.50
2023-09-20T02:30:46.736Z,11.50
2023-09-20T02:32:20.056Z,11.50
2023-09-20T02:33:55.024Z,11.50
2023-09-20T02:35:29.600Z,11.40
2023-09-20T02:37:05.677Z,11.40
2023-09-20T02:38:38.594Z,11.50
2023-09-20T02:40:14.324Z,11.50
2023-09-20T02:41:47.505Z,11.50
2023-09-20T02:43:19.710Z,11.50
2023-09-20T02:44:53.243Z,11.60
2023-09-20T02:46:26.541Z,11.80
2023-09-20T02:47:59.161Z,12.00
2023-09-20T02:49:35.608Z,12.10
2023-09-20T02:51:07.790Z,12.20
2023-09-20T02:52:41.881Z,12.20
2023-09-20T02:54:15.075Z,12.30
2023-09-20T02:55:51.441Z,12.30
2023-09-20T02:57:24.049Z,12.20
2023-09-20T02:58:57.175Z,12.20
2023-09-20T03:00:31.323Z,12.10
2023-09-20T03:02:05.601Z,12.10
2023-09-20T03:03:39.090Z,12.00
2023-09-20T03:05:12.258Z,11.90
2023-09-20T03:06:46.357Z,11.80
2023-09-20T03:08:18.972Z,11.80
2023-09-20T03:09:52.436Z,12.00
2023-09-20T03:11:27.279Z,11.90
2023-09-20T03:13:01.347Z,11.80
2023-09-20T03:14:35.893Z,11.80
2023-09-20T03:16:10.272Z,11.90
2023-09-20T03:17:43.741Z,11.90
2023-09-20T03:19:21.560Z,11.90
2023-09-20T03:20:54.761Z,12.00
2023-09-20T03:22:30.436Z,12.00
2023-09-20T03:24:06.944Z,12.00
2023-09-20T03:25:39.254Z,12.10
2023-09-20T03:27:24.970Z,12.10
2023-09-20T03:28:59.236Z,12.20
2023-09-20T03:30:33.237Z,12.20
2023-09-20T03:32:06.710Z,12.30
2023-09-20T03:33:39.822Z,12.30
2023-09-20T03:35:16.487Z,12.30
2023-09-20T03:36:51.606Z,12.40
2023-09-20T03:38:24.890Z,12.40
2023-09-20T03:39:59.918Z,12.40
2023-09-20T03:41:33.832Z,12.40
2023-09-20T03:43:09.679Z,12.50
2023-09-20T03:44:47.778Z,12.60
2023-09-20T03:46:20.987Z,12.60
2023-09-20T03:47:54.937Z,12.60
2023-09-20T03:49:30.043Z,12.60
2023-09-20T03:51:02.793Z,12.70
2023-09-20T03:52:36.695Z,12.80
2023-09-20T03:54:09.429Z,12.80
2023-09-20T03:55:42.722Z,12.80
2023-09-20T03:57:16.294Z,12.80
2023-09-20T03:58:51.216Z,12.70
2023-09-20T04:00:29.732Z,12.70
2023-09-20T04:02:05.272Z,12.60
2023-09-20T04:03:37.680Z,12.60
2023-09-20T04:05:16.093Z,12.50
2023-09-20T04:06:52.595Z,12.50
2023-09-20T04:08:25.356Z,12.50
2023-09-20T04:09:58.680Z,12.40
2023-09-20T04:11:30.946Z,12.40
2023-09-20T04:13:05.029Z,12.40
2023-09-20T04:14:38.987Z,12.40
2023-09-20T04:16:12.287Z,12.40
2023-09-20T04:17:49.332Z,12.30
2023-09-20T04:19:22.898Z,12.40
2023-09-20T04:20:55.198Z,12.40
2023-09-20T04:22:28.708Z,12.40
2023-09-20T04:24:00.954Z,12.40
2023-09-20T04:25:34.116Z,12.30
2023-09-20T04:27:09.438Z,12.30
2023-09-20T04:28:42.787Z,12.20
2023-09-20T04:30:19.065Z,12.20
2023-09-20T04:31:52.379Z,12.30
2023-09-20T04:33:26.790Z,12.20
2023-09-20T04:35:00.035Z,12.30
2023-09-20T04:36:32.166Z,12.30
2023-09-20T04:38:05.815Z,12.40
2023-09-20T04:39:39.765Z,12.40
2023-09-20T04:41:14.474Z,12.40
2023-09-20T04:42:48.298Z,12.50
2023-09-20T04:44:20.550Z,12.60
2023-09-20T04:45:57.699Z,12.60
2023-09-20T04:47:32.758Z,12.70
2023-09-20T04:49:07.725Z,12.80
2023-09-20T04:50:40.353Z,12.90
2023-09-20T04:52:16.818Z,12.90
2023-09-20T04:53:49.548Z,12.90
2023-09-20T04:55:22.920Z,12.90
2023-09-20T04:56:55.122Z,13.00
2023-09-20T04:58:28.252Z,13.00
2023-09-20T05:00:01.016Z,13.00
2023-09-20T05:01:35.702Z,13.00
2023-09-20T05:03:08.152Z,13.10
2023-09-20T05:04:41.637Z,13.10
2023-09-20T05:06:16.899Z,13.20
2023-09-20T05:07:49.513Z,13.20
2023-09-20T05:09:22.918Z,13.20
2023-09-20T05:10:57.015Z,13.30
2023-09-20T05:12:30.316Z,13.40
2023-09-20T05:14:04.481Z,13.50
2023-09-20T05:15:38.096Z,13.60
2023-09-20T05:17:12.447Z,13.60
2023-09-20T05:18:45.660Z,13.70
2023-09-20T05:20:18.290Z,13.90
2023-09-20T05:21:51.436Z,13.90
2023-09-20T05:23:23.727Z,14.20
2023-09-20T05:24:57.538Z,14.60
2023-09-20T05:26:29.716Z,15.00
2023-09-20T05:28:03.313Z,15.60
2023-09-20T05:29:35.611Z,16.10
2023-09-20T05:31:09.038Z,16.40
2023-09-20T05:32:42.668Z,16.50
2023-09-20T05:34:15.920Z,16.50
2023-09-20T05:35:48.628Z,16.70
2023-09-20T05:37:21.916Z,17.20
2023-09-20T05:38:55.337Z,17.60
2023-09-20T05:40:29.296Z,17.90
2023-09-20T05:42:03.750Z,18.00
2023-09-20T05:43:40.627Z,18.40
2023-09-20T05:45:14.565Z,18.70
2023-09-20T05:46:48.161Z,18.80
2023-09-20T05:48:22.829Z,19.30
2023-09-20T05:49:54.992Z,19.50
2023-09-20T05:51:28.220Z,19.50
2023-09-20T05:53:00.592Z,19.80
2023-09-20T05:54:33.924Z,19.90
2023-09-20T05:56:06.973Z,19.80
2023-09-20T05:57:41.160Z,19.80
2023-09-20T05:59:13.374Z,19.80
2023-09-20T06:00:46.540Z,20.00
2023-09-20T06:02:18.738Z,20.20
2023-09-20T06:03:57.508Z,20.10
2023-09-20T06:05:33.238Z,20.80
2023-09-20T06:07:05.908Z,21.20
2023-09-20T06:08:39.625Z,21.70
2023-09-20T06:10:12.949Z,22.20
2023-09-20T06:11:46.152Z,22.50
2023-09-20T06:13:18.314Z,22.90
2023-09-20T06:14:51.472Z,22.90
2023-09-20T06:16:24.775Z,23.10
2023-09-20T06:17:58.058Z,23.50
2023-09-20T06:19:31.892Z,23.80
2023-09-20T06:21:10.204Z,23.80
2023-09-20T06:22:43.640Z,23.90
2023-09-20T06:24:17.233Z,23.90
2023-09-20T06:25:49.333Z,23.70
2023-09-20T06:27:23.096Z,23.30
2023-09-20T06:28:56.693Z,23.10
2023-09-20T06:30:29.183Z,22.90
2023-09-20T06:33:37.652Z,22.70
2023-09-20T06:35:11.702Z,23.50
2023-09-20T06:36:44.868Z,23.20
2023-09-20T06:38:17.587Z,23.20
2023-09-20T06:39:50.757Z,23.20
2023-09-20T06:41:26.390Z,23.10
2023-09-20T06:42:58.793Z,23.20
2023-09-20T06:44:36.601Z,23.10
2023-09-20T06:46:11.773Z,23.10
2023-09-20T06:47:44.843Z,23.30
2023-09-20T06:49:18.149Z,23.50
2023-09-20T06:50:51.831Z,23.50
2023-09-20T06:52:25.059Z,23.20
2023-09-20T06:54:00.298Z,23.00
2023-09-20T06:55:32.461Z,22.90
2023-09-20T06:57:06.692Z,23.20
2023-09-20T06:58:38.852Z,23.10
2023-09-20T07:00:25.946Z,23.30
2023-09-20T07:02:00.545Z,24.10
2023-09-20T07:03:34.224Z,24.10
2023-09-20T07:05:06.457Z,24.30
2023-09-20T07:06:41.502Z,24.40
2023-09-20T07:08:13.714Z,24.40
2023-09-20T07:09:47.096Z,24.50
2023-09-20T07:11:20.385Z,24.50
2023-09-20T07:12:54.980Z,24.40
2023-09-20T07:14:29.386Z,24.80
2023-09-20T07:16:05.978Z,25.40
2023-09-20T07:17:42.169Z,25.80
2023-09-20T07:19:18.487Z,26.30
2023-09-20T07:20:56.580Z,26.40
2023-09-20T07:22:30.966Z,26.50
2023-09-20T07:24:04.744Z,26.70
2023-09-20T07:25:37.457Z,26.40
2023-09-20T07:27:10.627Z,26.20
2023-09-20T07:28:44.264Z,26.30
2023-09-20T07:30:20.484Z,25.90
2023-09-20T07:31:54.100Z,25.50
2023-09-20T07:33:32.436Z,25.10
2023-09-20T07:35:21.019Z,25.00
2023-09-20T07:36:54.999Z,25.20
2023-09-20T07:38:30.526Z,25.10
2023-09-20T07:40:04.525Z,25.20
2023-09-20T07:41:37.676Z,25.30
2023-09-20T07:43:18.687Z,25.10
2023-09-20T07:44:56.794Z,24.40
2023-09-20T07:46:34.860Z,24.20
2023-09-20T07:48:13.661Z,24.40
2023-09-20T07:49:45.846Z,24.20
2023-09-20T07:51:25.831Z,24.90
2023-09-20T07:52:59.435Z,25.10
2023-09-20T07:54:33.976Z,25.00
2023-09-20T07:56:06.483Z,25.50
2023-09-20T07:57:40.262Z,25.60
2023-09-20T07:59:14.693Z,25.60
2023-09-20T08:00:49.291Z,25.50
2023-09-20T08:02:22.609Z,25.70
2023-09-20T08:04:00.148Z,25.50
2023-09-20T08:05:34.437Z,25.20
2023-09-20T08:07:08.202Z,25.50
2023-09-20T08:08:41.632Z,25.50
2023-09-20T08:10:15.513Z,25.50
2023-09-20T08:11:49.170Z,25.70
2023-09-20T08:13:21.350Z,26.10
2023-09-20T08:14:54.499Z,26.00
2023-09-20T08:16:52.582Z,26.00
2023-09-20T08:18:44.530Z,26.20
2023-09-20T08:20:17.514Z,26.60
2023-09-20T08:21:50.657Z,26.50
2023-09-20T08:23:41.415Z,26.60
2023-09-20T08:25:33.853Z,26.60
2023-09-20T08:27:24.524Z,27.00
2023-09-20T08:29:14.982Z,27.10
2023-09-20T08:31:05.633Z,27.70
2023-09-20T08:32:56.563Z,27.50
2023-09-20T08:34:47.177Z,27.50
2023-09-20T08:36:37.568Z,27.00
2023-09-20T08:38:28.097Z,26.80
2023-09-20T08:40:18.780Z,27.10
2023-09-20T08:42:11.543Z,27.40
2023-09-20T08:44:02.510Z,27.00
2023-09-20T08:45:53.339Z,26.70
2023-09-20T08:47:46.774Z,26.60
2023-09-20T08:49:38.602Z,26.80
2023-09-20T08:51:29.731Z,26.20
2023-09-20T08:53:20.979Z,26.40
2023-09-20T08:55:12.193Z,26.90
2023-09-20T08:57:03.103Z,26.60
2023-09-20T08:58:55.468Z,26.30
2023-09-20T09:00:29.439Z,26.20
2023-09-20T09:02:02.647Z,26.80
2023-09-20T09:03:36.255Z,26.30
2023-09-20T09:05:09.873Z,26.20
2023-09-20T09:06:43.215Z,26.90
2023-09-20T09:08:15.379Z,27.00
2023-09-20T09:09:50.182Z,27.50
2023-09-20T09:11:24.908Z,27.80
2023-09-20T09:12:58.350Z,28.50
2023-09-20T09:14:32.968Z,28.10
2023-09-20T09:16:08.394Z,28.00
2023-09-20T09:17:41.076Z,27.70
2023-09-20T09:19:14.387Z,27.70
2023-09-20T09:20:47.159Z,28.20
2023-09-20T09:22:20.449Z,28.20
2023-09-20T09:23:54.441Z,29.00
2023-09-20T09:25:30.663Z,29.40
2023-09-20T09:27:06.713Z,30.00
2023-09-20T09:28:41.116Z,29.60
2023-09-20T09:30:17.533Z,29.50
2023-09-20T09:31:50.086Z,28.70
2023-09-20T09:33:27.217Z,28.80
2023-09-20T09:34:59.435Z,28.70
2023-09-20T09:36:32.902Z,28.30
2023-09-20T09:38:05.724Z,27.10
2023-09-20T09:39:41.615Z,27.20
2023-09-20T09:41:13.942Z,28.10
2023-09-20T09:42:47.949Z,28.10
2023-09-20T09:44:21.361Z,28.00
2023-09-20T09:46:03.136Z,28.20
2023-09-20T09:47:36.896Z,28.90
2023-09-20T09:49:13.481Z,29.40
2023-09-20T09:50:47.371Z,29.80
2023-09-20T09:52:24.507Z,29.40
2023-09-20T09:53:57.727Z,29.00
2023-09-20T09:55:31.322Z,29.40
2023-09-20T09:57:03.433Z,29.00
2023-09-20T09:58:36.829Z,29.50
2023-09-20T10:00:11.715Z,30.20
2023-09-20T10:01:49.800Z,30.10
2023-09-20T10:03:30.498Z,30.30
2023-09-20T10:05:04.864Z,30.50
2023-09-20T10:06:40.047Z,31.10
2023-09-20T10:08:16.157Z,31.40
2023-09-20T10:09:53.601Z,31.40
2023-09-20T10:11:28.463Z,31.30
2023-09-20T10:13:04.392Z,31.40
2023-09-20T10:14:38.697Z,31.10
2023-09-20T10:16:13.315Z,31.00
2023-09-20T10:17:56.123Z,31.00
2023-09-20T10:19:29.710Z,31.20
2023-09-20T10:21:12.351Z,31.20
2023-09-20T10:22:47.233Z,30.70
2023-09-20T10:24:28.395Z,31.10
2023-09-20T10:26:02.754Z,31.30
2023-09-20T10:27:37.006Z,31.60
2023-09-20T10:29:25.534Z,31.40
2023-09-20T10:31:03.490Z,30.50
2023-09-20T10:32:54.377Z,30.40
2023-09-20T10:34:28.114Z,30.60
2023-09-20T10:36:01.356Z,30.50
2023-09-20T10:37:33.502Z,30.90
2023-09-20T10:39:23.507Z,31.40
2023-09-20T10:41:06.593Z,31.80
2023-09-20T10:42:53.159Z,31.80
2023-09-20T10:44:29.641Z,32.50
2023-09-20T10:46:08.334Z,32.50
2023-09-20T10:47:50.759Z,32.50
2023-09-20T10:49:48.675Z,32.90
2023-09-20T10:51:50.272Z,33.30
2023-09-20T10:53:24.667Z,33.80
2023-09-20T10:55:30.960Z,33.90
2023-09-20T10:57:08.493Z,31.70
2023-09-20T10:58:44.000Z,31.40
2023-09-20T11:00:26.187Z,31.40
2023-09-20T11:02:04.203Z,31.80
2023-09-20T11:03:38.003Z,32.40
2023-09-20T11:05:13.154Z,32.10
2023-09-20T11:06:46.988Z,31.70
2023-09-20T11:08:22.419Z,31.70
2023-09-20T11:09:56.866Z,31.80
2023-09-20T11:11:30.065Z,32.10
2023-09-20T11:13:07.840Z,32.50
2023-09-20T11:14:42.147Z,32.70
2023-09-20T11:16:19.842Z,32.50
2023-09-20T11:17:53.527Z,32.10
2023-09-20T11:19:26.527Z,31.50
2023-09-20T11:21:03.095Z,30.70
2023-09-20T11:22:37.793Z,30.60
2023-09-20T11:24:10.211Z,30.80
2023-09-20T11:25:44.369Z,30.60
2023-09-20T11:27:16.724Z,30.70
2023-09-20T11:28:49.938Z,30.90
2023-09-20T11:30:28.572Z,30.90
2023-09-20T11:32:01.967Z,31.00
2023-09-20T11:33:34.314Z,31.40
2023-09-20T11:35:08.624Z,30.90
2023-09-20T11:36:43.920Z,30.30
2023-09-20T11:38:18.658Z,30.00
2023-09-20T11:39:53.170Z,29.40
2023-09-20T11:41:25.815Z,29.20
2023-09-20T11:42:59.518Z,29.30
2023-09-20T11:44:36.211Z,29.50
2023-09-20T11:46:12.208Z,30.00
2023-09-20T11:47:46.840Z,30.10
2023-09-20T11:49:20.900Z,30.10
2023-09-20T11:50:55.899Z,30.10
2023-09-20T11:52:30.717Z,30.10
2023-09-20T11:54:06.986Z,30.20
2023-09-20T11:55:43.665Z,30.50
2023-09-20T11:57:18.033Z,30.80
2023-09-20T11:58:50.652Z,30.70
2023-09-20T12:00:25.823Z,30.90
2023-09-20T12:01:58.000Z,30.90
2023-09-20T12:03:31.382Z,31.40
2023-09-20T12:05:05.273Z,31.80
2023-09-20T12:06:37.688Z,32.50
2023-09-20T12:08:12.249Z,32.00
2023-09-20T12:09:45.456Z,31.60
2023-09-20T12:11:18.325Z,31.00
2023-09-20T12:12:52.678Z,30.10
2023-09-20T12:14:25.957Z,29.70
2023-09-20T12:15:58.092Z,29.70
2023-09-20T12:17:31.296Z,29.70
2023-09-20T12:19:04.513Z,30.00
2023-09-20T12:20:39.379Z,30.00
2023-09-20T12:22:13.199Z,30.30
2023-09-20T12:23:46.913Z,30.40
2023-09-20T12:25:21.005Z,30.50
2023-09-20T12:26:54.353Z,30.90
2023-09-20T12:28:27.934Z,31.10
2023-09-20T12:30:01.310Z,31.30
2023-09-20T12:31:33.643Z,31.10
2023-09-20T12:33:08.580Z,31.00
2023-09-20T12:34:40.852Z,31.00
2023-09-20T12:36:15.961Z,30.70
2023-09-20T12:37:48.250Z,30.50
2023-09-20T12:39:22.778Z,30.40
2023-09-20T12:40:56.026Z,30.50
2023-09-20T12:42:29.126Z,30.30
2023-09-20T12:44:01.214Z,30.10
2023-09-20T12:45:34.511Z,29.90
2023-09-20T12:47:08.684Z,29.30
2023-09-20T12:48:42.141Z,28.80
2023-09-20T12:50:14.950Z,29.10
2023-09-20T12:51:48.392Z,29.50
2023-09-20T12:53:21.209Z,30.20
2023-09-20T12:54:55.848Z,30.00
2023-09-20T12:56:31.558Z,29.90
2023-09-20T12:58:04.422Z,29.50
2023-09-20T12:59:37.710Z,29.70
2023-09-20T13:01:12.034Z,29.40
2023-09-20T13:02:46.684Z,29.50
2023-09-20T13:04:20.995Z,29.90
2023-09-20T13:05:53.610Z,29.80
2023-09-20T13:07:27.794Z,29.70
2023-09-20T13:09:00.993Z,29.80
2023-09-20T13:10:34.986Z,29.80
2023-09-20T13:12:09.402Z,29.40
2023-09-20T13:13:42.782Z,29.40
2023-09-20T13:15:18.785Z,29.10
2023-09-20T13:16:52.043Z,28.80
2023-09-20T13:18:24.300Z,28.90
2023-09-20T13:19:57.945Z,28.90
2023-09-20T13:21:31.027Z,28.70
2023-09-20T13:23:03.619Z,28.50
2023-09-20T13:24:40.605Z,28.60
2023-09-20T13:26:16.766Z,28.60
2023-09-20T13:27:50.202Z,28.60
2023-09-20T13:29:25.085Z,28.60
2023-09-20T13:30:57.681Z,28.60
2023-09-20T13:32:30.962Z,28.90
2023-09-20T13:34:05.971Z,29.20
2023-09-20T13:35:40.538Z,29.80
2023-09-20T13:37:13.786Z,30.40
2023-09-20T13:38:47.458Z,30.50
2023-09-20T13:40:24.224Z,30.30
2023-09-20T13:41:59.468Z,30.60
2023-09-20T13:43:32.819Z,30.10
2023-09-20T13:45:08.774Z,30.70
2023-09-20T13:46:41.967Z,30.70
2023-09-20T13:48:15.944Z,30.70
2023-09-20T13:49:50.623Z,30.00
2023-09-20T13:51:24.043Z,29.40
2023-09-20T13:52:58.393Z,29.40
2023-09-20T13:54:30.655Z,29.20
2023-09-20T13:56:03.882Z,28.80
2023-09-20T13:57:38.024Z,29.10
2023-09-20T13:59:11.522Z,29.00
2023-09-20T14:00:43.668Z,28.80
2023-09-20T14:02:17.228Z,28.70
2023-09-20T14:03:50.408Z,28.40
2023-09-20T14:05:24.369Z,28.40
2023-09-20T14:06:57.582Z,28.40
2023-09-20T14:08:31.096Z,28.40
2023-09-20T14:10:04.329Z,27.80
2023-09-20T14:11:36.557Z,27.40
2023-09-20T14:13:11.330Z,27.50
2023-09-20T14:14:43.587Z,27.70
2023-09-20T14:16:17.996Z,27.80
2023-09-20T14:17:55.221Z,27.90
2023-09-20T14:19:28.536Z,28.00
2023-09-20T14:21:03.333Z,27.80
2023-09-20T14:22:36.646Z,27.80
2023-09-20T14:24:10.032Z,27.80
2023-09-20T14:25:42.442Z,27.60
2023-09-20T14:27:15.753Z,27.50
2023-09-20T14:28:50.261Z,27.40
2023-09-20T14:30:22.720Z,27.60
2023-09-20T14:31:56.071Z,27.50
2023-09-20T14:33:30.332Z,27.40
2023-09-20T14:35:03.319Z,27.40
2023-09-20T14:36:36.903Z,27.30
2023-09-20T14:38:09.143Z,27.30
2023-09-20T14:39:42.283Z,27.40
2023-09-20T14:41:15.524Z,27.40
2023-09-20T14:42:49.159Z,27.40
2023-09-20T14:44:23.781Z,27.30
2023-09-20T14:45:57.114Z,27.20
2023-09-20T14:47:29.421Z,27.30
2023-09-20T14:49:02.741Z,27.10
2023-09-20T14:50:35.437Z,27.00
2023-09-20T14:52:09.494Z,27.10
2023-09-20T14:53:43.238Z,27.10
2023-09-20T14:55:20.295Z,27.00
2023-09-20T14:56:54.182Z,27.00
2023-09-20T14:58:30.242Z,26.80
2023-09-20T15:00:07.238Z,26.90
2023-09-20T15:01:41.337Z,26.80
2023-09-20T15:03:15.426Z,26.70
2023-09-20T15:04:48.140Z,26.60
2023-09-20T15:06:23.007Z,26.50
2023-09-20T15:07:58.945Z,26.50
2023-09-20T15:09:32.200Z,26.40
2023-09-20T15:11:04.462Z,26.30
2023-09-20T15:12:37.812Z,26.30
2023-09-20T15:14:12.094Z,26.30
2023-09-20T15:15:46.625Z,26.30
2023-09-20T15:17:21.327Z,26.20
2023-09-20T15:18:54.289Z,26.30
2023-09-20T15:20:28.171Z,26.30
2023-09-20T15:22:00.560Z,26.30
2023-09-20T15:23:33.863Z,26.20
2023-09-20T15:25:07.542Z,26.10
2023-09-20T15:26:40.918Z,26.10
2023-09-20T15:28:13.396Z,26.00
2023-09-20T15:29:47.631Z,26.00
2023-09-20T15:31:21.515Z,26.00
2023-09-20T15:32:55.022Z,25.90
2023-09-20T15:34:27.486Z,25.90
2023-09-20T15:36:01.735Z,25.80
2023-09-20T15:37:41.743Z,25.70
2023-09-20T15:39:18.676Z,25.70
2023-09-20T15:40:51.694Z,25.70
2023-09-20T15:42:24.989Z,25.70
2023-09-20T15:43:57.245Z,25.70
2023-09-20T15:45:30.866Z,25.60
2023-09-20T15:47:05.589Z,25.50
2023-09-20T15:48:39.378Z,25.50
2023-09-20T15:50:11.703Z,25.40
2023-09-20T15:51:46.421Z,25.40
2023-09-20T15:53:19.752Z,25.30
2023-09-20T15:54:52.290Z,25.30
2023-09-20T15:56:26.454Z,25.20
2023-09-20T15:57:58.994Z,25.50
2023-09-20T15:59:32.209Z,25.20
2023-09-20T16:01:04.741Z,25.20
2023-09-20T16:02:39.718Z,25.20
2023-09-20T16:04:14.067Z,25.10
2023-09-20T16:05:49.674Z,25.00
2023-09-20T16:07:22.956Z,25.00
2023-09-20T16:08:59.424Z,24.80
2023-09-20T16:10:31.654Z,24.80
2023-09-20T16:12:04.945Z,24.80
2023-09-20T16:13:37.177Z,24.70
2023-09-20T16:15:11.302Z,24.70
2023-09-20T16:16:44.289Z,24.60
2023-09-20T16:18:19.660Z,24.50
2023-09-20T16:19:52.115Z,24.40
2023-09-20T16:21:25.769Z,24.30
2023-09-20T16:22:58.468Z,24.30
2023-09-20T16:24:33.108Z,24.20
2023-09-20T16:26:05.432Z,24.20
2023-09-20T16:27:38.986Z,24.20
2023-09-20T16:29:12.243Z,24.00
2023-09-20T16:30:46.256Z,24.10
2023-09-20T16:32:19.894Z,24.00
2023-09-20T16:33:54.512Z,23.70
2023-09-20T16:35:27.440Z,23.70
2023-09-20T16:37:01.170Z,23.50
2023-09-20T16:38:34.408Z,23.40
2023-09-20T16:40:09.169Z,23.20
2023-09-20T16:41:43.067Z,23.00
2023-09-20T16:43:16.775Z,22.80
2023-09-20T16:44:51.056Z,22.70
2023-09-20T16:46:23.228Z,22.50
2023-09-20T16:47:56.625Z,22.30
2023-09-20T16:49:30.197Z,22.20
2023-09-20T16:51:04.421Z,21.90
2023-09-20T16:52:38.406Z,21.70
2023-09-20T16:54:13.415Z,21.50
2023-09-20T16:55:46.499Z,21.30
2023-09-20T16:57:19.675Z,21.30
2023-09-20T16:58:52.800Z,21.10
2023-09-20T17:00:25.085Z,21.00
2023-09-20T17:01:58.207Z,21.00
2023-09-20T17:03:30.524Z,20.80
2023-09-20T17:05:05.543Z,20.90
2023-09-20T17:06:37.684Z,20.80
2023-09-20T17:08:10.908Z,20.70
2023-09-20T17:09:43.109Z,20.60
2023-09-20T17:11:17.620Z,20.50
2023-09-20T17:12:51.406Z,20.40
2023-09-20T17:14:25.323Z,20.20
2023-09-20T17:15:58.798Z,20.20
2023-09-20T17:17:31.096Z,20.10
2023-09-20T17:19:04.366Z,20.00
2023-09-20T17:20:39.445Z,19.90
2023-09-20T17:22:14.646Z,19.80
2023-09-20T17:23:46.889Z,19.70
2023-09-20T17:25:20.499Z,19.70
2023-09-20T17:26:52.742Z,19.60
2023-09-20T17:28:27.204Z,19.50
2023-09-20T17:29:59.410Z,19.50
2023-09-20T17:31:32.727Z,19.50
2023-09-20T17:33:05.605Z,19.50
2023-09-20T17:34:40.461Z,19.50
2023-09-20T17:36:14.876Z,19.50
2023-09-20T17:37:48.266Z,19.40
2023-09-20T17:39:21.823Z,19.30
2023-09-20T17:40:54.967Z,19.30
2023-09-20T17:42:27.471Z,19.30
2023-09-20T17:44:01.291Z,19.30
2023-09-20T17:45:33.786Z,19.30
2023-09-20T17:47:08.804Z,19.30
2023-09-20T17:48:41.195Z,19.30
2023-09-20T17:50:15.098Z,19.30
2023-09-20T17:51:49.027Z,19.20
2023-09-20T17:53:22.170Z,19.30
2023-09-20T17:54:55.487Z,19.30
2023-09-20T17:56:31.464Z,19.40
2023-09-20T17:58:06.922Z,19.60
2023-09-20T17:59:40.045Z,19.60
2023-09-20T18:01:15.348Z,19.50
2023-09-20T18:02:47.690Z,19.40
2023-09-20T18:04:22.750Z,19.40
2023-09-20T18:05:55.113Z,19.30
2023-09-20T18:07:29.638Z,19.10
2023-09-20T18:09:03.774Z,19.10
2023-09-20T18:10:37.044Z,19.00
2023-09-20T18:12:11.339Z,18.90
2023-09-20T18:13:45.086Z,18.90
2023-09-20T18:15:19.398Z,18.80
2023-09-20T18:16:52.483Z,18.70
2023-09-20T18:18:26.164Z,18.70
2023-09-20T18:20:00.235Z,18.60
2023-09-20T18:21:35.335Z,18.60
2023-09-20T18:23:10.609Z,18.50
2023-09-20T18:24:46.853Z,18.50
2023-09-20T18:26:19.098Z,18.40
2023-09-20T18:27:52.503Z,18.30
2023-09-20T18:29:25.063Z,18.20
2023-09-20T18:30:58.266Z,18.20
2023-09-20T18:32:32.176Z,18.10
2023-09-20T18:34:05.795Z,18.00
2023-09-20T18:35:38.273Z,17.90
2023-09-20T18:37:14.673Z,17.90
2023-09-20T18:38:48.795Z,17.90
2023-09-20T18:40:21.979Z,17.80
2023-09-20T18:41:54.197Z,17.70
2023-09-20T18:43:27.451Z,17.70
2023-09-20T18:44:59.632Z,17.70
2023-09-20T18:46:32.829Z,17.70
2023-09-20T18:48:05.558Z,17.70
2023-09-20T18:49:39.223Z,17.70
2023-09-20T18:51:12.395Z,17.60
2023-09-20T18:52:47.403Z,17.60
2023-09-20T18:54:21.121Z,17.50
2023-09-20T18:55:57.010Z,17.50
2023-09-20T18:57:29.105Z,17.40
2023-09-20T18:59:04.158Z,17.40
2023-09-20T19:00:36.872Z,17.50
2023-09-20T19:02:11.994Z,17.50
2023-09-20T19:03:47.460Z,17.60
2023-09-20T19:05:21.092Z,17.60
2023-09-20T19:06:54.306Z,17.60
2023-09-20T19:08:26.579Z,17.40
2023-09-20T19:10:01.181Z,17.60
2023-09-20T19:11:34.985Z,17.50
2023-09-20T19:13:09.910Z,17.40
2023-09-20T19:14:45.568Z,17.50
2023-09-20T19:16:18.117Z,17.40
2023-09-20T19:17:51.345Z,17.40
2023-09-20T19:19:24.662Z,17.40
2023-09-20T19:20:58.123Z,17.30
2023-09-20T19:22:30.337Z,17.30
2023-09-20T19:24:10.451Z,17.30
2023-09-20T19:25:47.156Z,17.20
2023-09-20T19:27:23.025Z,17.20
2023-09-20T19:28:56.691Z,17.20
2023-09-20T19:30:30.537Z,17.10
2023-09-20T19:32:03.959Z,17.20
2023-09-20T19:33:38.242Z,17.30
2023-09-20T19:35:11.566Z,17.30
2023-09-20T19:36:45.166Z,17.30
2023-09-20T19:38:18.991Z,17.20
2023-09-20T19:39:52.102Z,17.10
2023-09-20T19:41:27.270Z,17.00
2023-09-20T19:42:59.555Z,16.90
2023-09-20T19:44:32.719Z,16.80
2023-09-20T19:46:09.668Z,16.70
2023-09-20T19:47:45.143Z,16.70
2023-09-20T19:49:18.826Z,16.60
2023-09-20T19:50:52.268Z,16.60
2023-09-20T19:52:24.525Z,16.60
2023-09-20T19:53:59.198Z,16.60
2023-09-20T19:55:31.740Z,16.60
2023-09-20T19:57:06.736Z,16.60
2023-09-20T19:58:42.136Z,16.60
2023-09-20T20:00:24.869Z,16.50
2023-09-20T20:01:59.122Z,16.40
2023-09-20T20:03:31.961Z,16.40
2023-09-20T20:05:06.331Z,16.40
2023-09-20T20:06:38.518Z,16.20
2023-09-20T20:08:12.285Z,16.20
2023-09-20T20:09:44.477Z,16.10
2023-09-20T20:11:20.878Z,16.10
2023-09-20T20:12:55.305Z,16.10
2023-09-20T20:14:31.275Z,16.10
2023-09-20T20:16:04.120Z,16.10
2023-09-20T20:17:39.963Z,16.00
2023-09-20T20:19:13.757Z,16.00
2023-09-20T20:20:48.583Z,16.10
2023-09-20T20:22:23.009Z,16.10